sensor_id;sensor_type;location;lat;lon;timestamp;temperature;humidity
9865;DHT22;4971;52.398;9.774;2022-09-01T00:02:06;15.40;99.90
9865;DHT22;4971;52.398;9.774;2022-09-01T00:04:35;15.30;99.90
9865;DHT22;4971;52.398;9.774;2022-09-01T00:07:04;15.30;99.90
9865;DHT22;4971;52.398;9.774;2022-09-01T00:11:57;15.40;99.90
9865;DHT22;4971;52.398;9.774;2022-09-01T00:14:25;15.30;99.90
9865;DHT22;4971;52.398;9.774;2022-09-01T00:16:51;15.20;99.90
9865;DHT22;4971;52.398;9.774;2022-09-01T00:19:19;15.30;99.90
9865;DHT22;4971;52.398;9.774;2022-09-01T00:21:45;15.10;99.90
9865;DHT22;4971;52.398;9.774;2022-09-01T00:24:12;15.20;99.90
9865;DHT22;4971;52.398;9.774;2022-09-01T00:26:38;15.30;99.90
9865;DHT22;4971;52.398;9.774;2022-09-01T00:29:05;15.00;99.90
9865;DHT22;4971;52.398;9.774;2022-09-01T00:31:30;14.90;99.90
9865;DHT22;4971;52.398;9.774;2022-09-01T00:38:49;14.90;99.90
9865;DHT22;4971;52.398;9.774;2022-09-01T00:41:18;14.90;99.90
9865;DHT22;4971;52.398;9.774;2022-09-01T00:43:47;14.70;99.90
9865;DHT22;4971;52.398;9.774;2022-09-01T00:46:23;14.70;99.90
9865;DHT22;4971;52.398;9.774;2022-09-01T00:51:27;14.40;99.90
9865;DHT22;4971;52.398;9.774;2022-09-01T00:53:54;14.40;99.90
9865;DHT22;4971;52.398;9.774;2022-09-01T00:56:21;14.70;99.90
9865;DHT22;4971;52.398;9.774;2022-09-01T00:58:47;14.20;99.90
9865;DHT22;4971;52.398;9.774;2022-09-01T01:06:12;14.50;99.90
9865;DHT22;4971;52.398;9.774;2022-09-01T01:08:45;14.50;99.90
9865;DHT22;4971;52.398;9.774;2022-09-01T01:11:30;14.50;99.90
9865;DHT22;4971;52.398;9.774;2022-09-01T01:14:01;14.50;99.90
9865;DHT22;4971;52.398;9.774;2022-09-01T01:16:33;14.00;99.90
9865;DHT22;4971;52.398;9.774;2022-09-01T01:21:34;14.40;99.90
9865;DHT22;4971;52.398;9.774;2022-09-01T01:24:29;14.10;99.90
9865;DHT22;4971;52.398;9.774;2022-09-01T01:26:56;14.30;99.90
9865;DHT22;4971;52.398;9.774;2022-09-01T01:29:33;14.30;99.90
9865;DHT22;4971;52.398;9.774;2022-09-01T01:32:00;14.10;99.90
9865;DHT22;4971;52.398;9.774;2022-09-01T01:39:22;14.20;99.90
9865;DHT22;4971;52.398;9.774;2022-09-01T01:41:51;14.20;99.90
9865;DHT22;4971;52.398;9.774;2022-09-01T01:44:20;14.40;99.90
9865;DHT22;4971;52.398;9.774;2022-09-01T01:46:49;14.30;99.90
9865;DHT22;4971;52.398;9.774;2022-09-01T01:49:18;14.30;99.90
9865;DHT22;4971;52.398;9.774;2022-09-01T01:51:51;14.10;99.90
9865;DHT22;4971;52.398;9.774;2022-09-01T01:54:23;14.40;99.90
9865;DHT22;4971;52.398;9.774;2022-09-01T01:56:50;14.50;99.90
9865;DHT22;4971;52.398;9.774;2022-09-01T01:59:16;14.20;99.90
9865;DHT22;4971;52.398;9.774;2022-09-01T02:01:44;14.20;99.90
9865;DHT22;4971;52.398;9.774;2022-09-01T02:04:14;14.30;99.90
9865;DHT22;4971;52.398;9.774;2022-09-01T02:06:42;14.20;99.90
9865;DHT22;4971;52.398;9.774;2022-09-01T02:16:30;14.00;99.90
9865;DHT22;4971;52.398;9.774;2022-09-01T02:18:58;13.90;99.90
9865;DHT22;4971;52.398;9.774;2022-09-01T02:21:25;13.60;99.90
9865;DHT22;4971;52.398;9.774;2022-09-01T02:23:57;13.80;99.90
9865;DHT22;4971;52.398;9.774;2022-09-01T02:26:35;13.80;99.90
9865;DHT22;4971;52.398;9.774;2022-09-01T02:29:06;13.70;99.90
9865;DHT22;4971;52.398;9.774;2022-09-01T02:31:35;13.50;99.90
9865;DHT22;4971;52.398;9.774;2022-09-01T02:34:05;13.70;99.90
9865;DHT22;4971;52.398;9.774;2022-09-01T02:36:39;13.70;99.90
9865;DHT22;4971;52.398;9.774;2022-09-01T02:39:09;13.60;99.90
9865;DHT22;4971;52.398;9.774;2022-09-01T02:44:02;13.50;99.90
9865;DHT22;4971;52.398;9.774;2022-09-01T02:46:38;13.70;99.90
9865;DHT22;4971;52.398;9.774;2022-09-01T02:49:07;13.60;99.90
9865;DHT22;4971;52.398;9.774;2022-09-01T02:51:41;13.50;99.90
9865;DHT22;4971;52.398;9.774;2022-09-01T02:54:07;13.50;99.90
9865;DHT22;4971;52.398;9.774;2022-09-01T03:01:30;13.50;99.90
9865;DHT22;4971;52.398;9.774;2022-09-01T03:04:02;13.20;99.90
9865;DHT22;4971;52.398;9.774;2022-09-01T03:06:30;13.20;99.90
9865;DHT22;4971;52.398;9.774;2022-09-01T03:08:59;13.20;99.90
9865;DHT22;4971;52.398;9.774;2022-09-01T03:11:27;13.30;99.90
9865;DHT22;4971;52.398;9.774;2022-09-01T03:13:53;13.10;99.90
9865;DHT22;4971;52.398;9.774;2022-09-01T03:18:47;13.40;99.90
9865;DHT22;4971;52.398;9.774;2022-09-01T03:23:43;13.30;99.90
9865;DHT22;4971;52.398;9.774;2022-09-01T03:28:35;13.20;99.90
9865;DHT22;4971;52.398;9.774;2022-09-01T03:31:02;13.40;99.90
9865;DHT22;4971;52.398;9.774;2022-09-01T03:33:29;13.50;99.90
9865;DHT22;4971;52.398;9.774;2022-09-01T03:35:55;13.30;99.90
9865;DHT22;4971;52.398;9.774;2022-09-01T03:38:22;13.30;99.90
9865;DHT22;4971;52.398;9.774;2022-09-01T03:40:51;13.30;99.90
9865;DHT22;4971;52.398;9.774;2022-09-01T03:43:18;13.40;99.90
9865;DHT22;4971;52.398;9.774;2022-09-01T03:45:45;13.20;99.90
9865;DHT22;4971;52.398;9.774;2022-09-01T03:48:11;13.50;99.90
9865;DHT22;4971;52.398;9.774;2022-09-01T03:50:42;13.30;99.90
9865;DHT22;4971;52.398;9.774;2022-09-01T03:53:15;13.20;99.90
9865;DHT22;4971;52.398;9.774;2022-09-01T03:55:44;13.10;99.90
9865;DHT22;4971;52.398;9.774;2022-09-01T03:58:12;13.40;99.90
9865;DHT22;4971;52.398;9.774;2022-09-01T04:00:41;13.30;99.90
9865;DHT22;4971;52.398;9.774;2022-09-01T04:03:09;13.50;99.90
9865;DHT22;4971;52.398;9.774;2022-09-01T04:05:40;13.20;99.90
9865;DHT22;4971;52.398;9.774;2022-09-01T04:08:07;13.30;99.90
9865;DHT22;4971;52.398;9.774;2022-09-01T04:10:41;13.50;99.90
9865;DHT22;4971;52.398;9.774;2022-09-01T04:13:16;13.30;99.90
9865;DHT22;4971;52.398;9.774;2022-09-01T04:18:08;13.20;99.90
9865;DHT22;4971;52.398;9.774;2022-09-01T04:20:41;13.40;99.90
9865;DHT22;4971;52.398;9.774;2022-09-01T04:25:55;13.20;99.90
9865;DHT22;4971;52.398;9.774;2022-09-01T04:28:23;13.10;99.90
9865;DHT22;4971;52.398;9.774;2022-09-01T04:30:56;13.00;99.90
9865;DHT22;4971;52.398;9.774;2022-09-01T04:33:27;13.20;99.90
9865;DHT22;4971;52.398;9.774;2022-09-01T04:36:13;13.00;99.90
9865;DHT22;4971;52.398;9.774;2022-09-01T04:38:44;12.80;99.90
9865;DHT22;4971;52.398;9.774;2022-09-01T04:41:10;12.80;99.90
9865;DHT22;4971;52.398;9.774;2022-09-01T04:43:44;13.10;99.90
9865;DHT22;4971;52.398;9.774;2022-09-01T04:51:10;12.90;99.90
9865;DHT22;4971;52.398;9.774;2022-09-01T04:53:38;13.00;99.90
9865;DHT22;4971;52.398;9.774;2022-09-01T04:56:06;13.00;99.90
9865;DHT22;4971;52.398;9.774;2022-09-01T04:58:32;13.10;99.90
9865;DHT22;4971;52.398;9.774;2022-09-01T05:00:58;13.00;99.90
9865;DHT22;4971;52.398;9.774;2022-09-01T05:03:25;13.00;99.90
9865;DHT22;4971;52.398;9.774;2022-09-01T05:08:20;12.80;99.90
9865;DHT22;4971;52.398;9.774;2022-09-01T05:10:49;13.00;99.90
9865;DHT22;4971;52.398;9.774;2022-09-01T05:13:18;13.00;99.90
9865;DHT22;4971;52.398;9.774;2022-09-01T05:15:46;13.00;99.90
9865;DHT22;4971;52.398;9.774;2022-09-01T05:18:17;13.00;99.90
9865;DHT22;4971;52.398;9.774;2022-09-01T05:20:49;13.00;99.90
9865;DHT22;4971;52.398;9.774;2022-09-01T05:23:15;13.10;99.90
9865;DHT22;4971;52.398;9.774;2022-09-01T05:25:45;13.00;99.90
9865;DHT22;4971;52.398;9.774;2022-09-01T05:28:17;13.00;99.90
9865;DHT22;4971;52.398;9.774;2022-09-01T05:30:45;13.00;99.90
9865;DHT22;4971;52.398;9.774;2022-09-01T05:33:12;13.20;99.90
9865;DHT22;4971;52.398;9.774;2022-09-01T05:35:53;13.00;99.90
9865;DHT22;4971;52.398;9.774;2022-09-01T05:38:20;13.20;99.90
9865;DHT22;4971;52.398;9.774;2022-09-01T05:40:55;13.40;99.90
9865;DHT22;4971;52.398;9.774;2022-09-01T05:43:22;13.40;99.90
9865;DHT22;4971;52.398;9.774;2022-09-01T05:45:49;13.50;99.90
9865;DHT22;4971;52.398;9.774;2022-09-01T05:53:11;13.60;99.90
9865;DHT22;4971;52.398;9.774;2022-09-01T05:55:43;13.60;99.90
9865;DHT22;4971;52.398;9.774;2022-09-01T05:58:14;13.60;99.90
9865;DHT22;4971;52.398;9.774;2022-09-01T06:00:42;13.60;99.90
9865;DHT22;4971;52.398;9.774;2022-09-01T06:03:09;13.80;99.90
9865;DHT22;4971;52.398;9.774;2022-09-01T06:08:03;13.70;99.90
9865;DHT22;4971;52.398;9.774;2022-09-01T06:10:30;13.80;99.90
9865;DHT22;4971;52.398;9.774;2022-09-01T06:12:56;13.70;99.90
9865;DHT22;4971;52.398;9.774;2022-09-01T06:15:28;14.00;99.90
9865;DHT22;4971;52.398;9.774;2022-09-01T06:17:54;13.90;99.90
9865;DHT22;4971;52.398;9.774;2022-09-01T06:22:47;13.90;99.90
9865;DHT22;4971;52.398;9.774;2022-09-01T06:25:14;13.90;99.90
9865;DHT22;4971;52.398;9.774;2022-09-01T06:30:10;14.10;99.90
9865;DHT22;4971;52.398;9.774;2022-09-01T06:32:41;14.20;99.90
9865;DHT22;4971;52.398;9.774;2022-09-01T06:35:13;14.50;99.90
9865;DHT22;4971;52.398;9.774;2022-09-01T06:37:42;14.40;99.90
9865;DHT22;4971;52.398;9.774;2022-09-01T06:40:10;14.40;99.90
9865;DHT22;4971;52.398;9.774;2022-09-01T06:42:46;14.60;99.90
9865;DHT22;4971;52.398;9.774;2022-09-01T06:45:13;14.70;99.90
9865;DHT22;4971;52.398;9.774;2022-09-01T06:47:40;14.80;99.90
9865;DHT22;4971;52.398;9.774;2022-09-01T06:50:09;15.60;99.90
9865;DHT22;4971;52.398;9.774;2022-09-01T06:59:57;14.80;99.90
9865;DHT22;4971;52.398;9.774;2022-09-01T07:17:01;15.60;99.90
9865;DHT22;4971;52.398;9.774;2022-09-01T07:21:53;15.70;99.90
9865;DHT22;4971;52.398;9.774;2022-09-01T07:24:20;15.70;99.90
9865;DHT22;4971;52.398;9.774;2022-09-01T07:26:46;15.90;99.90
9865;DHT22;4971;52.398;9.774;2022-09-01T07:29:16;15.90;99.90
9865;DHT22;4971;52.398;9.774;2022-09-01T07:31:46;16.00;99.90
9865;DHT22;4971;52.398;9.774;2022-09-01T07:34:12;16.10;99.90
9865;DHT22;4971;52.398;9.774;2022-09-01T07:36:40;16.30;99.90
9865;DHT22;4971;52.398;9.774;2022-09-01T07:39:08;16.10;99.90
9865;DHT22;4971;52.398;9.774;2022-09-01T07:44:01;16.40;99.90
9865;DHT22;4971;52.398;9.774;2022-09-01T07:46:30;16.60;99.90
9865;DHT22;4971;52.398;9.774;2022-09-01T07:48:58;16.30;99.90
9865;DHT22;4971;52.398;9.774;2022-09-01T07:53:52;16.70;99.90
9865;DHT22;4971;52.398;9.774;2022-09-01T07:56:20;16.90;99.90
9865;DHT22;4971;52.398;9.774;2022-09-01T07:58:46;16.90;99.90
9865;DHT22;4971;52.398;9.774;2022-09-01T08:01:18;17.10;99.90
9865;DHT22;4971;52.398;9.774;2022-09-01T08:03:50;17.10;99.90
9865;DHT22;4971;52.398;9.774;2022-09-01T08:06:18;17.30;99.90
9865;DHT22;4971;52.398;9.774;2022-09-01T08:08:48;17.90;99.90
9865;DHT22;4971;52.398;9.774;2022-09-01T08:11:20;17.40;99.90
9865;DHT22;4971;52.398;9.774;2022-09-01T08:18:40;17.70;99.90
9865;DHT22;4971;52.398;9.774;2022-09-01T08:21:11;17.80;99.90
9865;DHT22;4971;52.398;9.774;2022-09-01T08:23:38;17.90;99.90
9865;DHT22;4971;52.398;9.774;2022-09-01T08:26:10;18.00;99.90
9865;DHT22;4971;52.398;9.774;2022-09-01T08:28:36;18.10;99.80
9865;DHT22;4971;52.398;9.774;2022-09-01T08:31:07;18.10;98.20
9865;DHT22;4971;52.398;9.774;2022-09-01T08:33:33;18.50;95.90
9865;DHT22;4971;52.398;9.774;2022-09-01T08:36:00;18.50;94.50
9865;DHT22;4971;52.398;9.774;2022-09-01T08:40:55;18.70;94.40
9865;DHT22;4971;52.398;9.774;2022-09-01T08:45:55;19.80;92.30
9865;DHT22;4971;52.398;9.774;2022-09-01T08:48:51;20.70;88.80
9865;DHT22;4971;52.398;9.774;2022-09-01T08:51:48;21.00;86.90
9865;DHT22;4971;52.398;9.774;2022-09-01T08:54:25;22.30;79.60
9865;DHT22;4971;52.398;9.774;2022-09-01T08:56:58;23.40;78.30
9865;DHT22;4971;52.398;9.774;2022-09-01T09:16:15;26.80;49.30
9865;DHT22;4971;52.398;9.774;2022-09-01T09:18:55;27.60;45.30
9865;DHT22;4971;52.398;9.774;2022-09-01T09:21:37;27.40;42.50
9865;DHT22;4971;52.398;9.774;2022-09-01T09:26:55;28.90;35.60
9865;DHT22;4971;52.398;9.774;2022-09-01T09:29:23;30.20;29.00
9865;DHT22;4971;52.398;9.774;2022-09-01T09:32:01;31.00;24.60
9865;DHT22;4971;52.398;9.774;2022-09-01T09:42:15;31.40;17.10
9865;DHT22;4971;52.398;9.774;2022-09-01T09:44:43;31.20;16.30
9865;DHT22;4971;52.398;9.774;2022-09-01T09:47:47;30.70;17.10
9865;DHT22;4971;52.398;9.774;2022-09-01T09:50:24;30.10;18.20
9865;DHT22;4971;52.398;9.774;2022-09-01T09:52:52;29.60;19.90
9865;DHT22;4971;52.398;9.774;2022-09-01T09:57:48;29.10;20.40
9865;DHT22;4971;52.398;9.774;2022-09-01T10:00:27;28.40;19.50
9865;DHT22;4971;52.398;9.774;2022-09-01T10:02:57;29.00;19.50
9865;DHT22;4971;52.398;9.774;2022-09-01T10:08:36;28.10;19.00
9865;DHT22;4971;52.398;9.774;2022-09-01T10:11:04;28.30;19.80
9865;DHT22;4971;52.398;9.774;2022-09-01T10:13:30;29.40;21.00
9865;DHT22;4971;52.398;9.774;2022-09-01T10:16:02;30.70;18.20
9865;DHT22;4971;52.398;9.774;2022-09-01T10:18:34;29.50;17.30
9865;DHT22;4971;52.398;9.774;2022-09-01T10:21:03;29.10;17.50
9865;DHT22;4971;52.398;9.774;2022-09-01T10:23:34;29.80;18.00
9865;DHT22;4971;52.398;9.774;2022-09-01T10:26:06;28.40;17.10
9865;DHT22;4971;52.398;9.774;2022-09-01T10:28:46;27.10;19.40
9865;DHT22;4971;52.398;9.774;2022-09-01T10:31:16;28.60;20.30
9865;DHT22;4971;52.398;9.774;2022-09-01T10:33:42;28.40;18.00
9865;DHT22;4971;52.398;9.774;2022-09-01T10:36:08;28.30;17.70
9865;DHT22;4971;52.398;9.774;2022-09-01T10:38:34;28.20;18.00
9865;DHT22;4971;52.398;9.774;2022-09-01T10:48:46;29.20;16.20
9865;DHT22;4971;52.398;9.774;2022-09-01T10:56:12;27.20;18.60
9865;DHT22;4971;52.398;9.774;2022-09-01T11:04:05;22.40;18.90
9865;DHT22;4971;52.398;9.774;2022-09-01T11:20:27;23.50;21.80
9865;DHT22;4971;52.398;9.774;2022-09-01T11:35:42;22.90;23.70
9865;DHT22;4971;52.398;9.774;2022-09-01T11:38:13;23.10;24.50
9865;DHT22;4971;52.398;9.774;2022-09-01T11:43:12;22.70;25.20
9865;DHT22;4971;52.398;9.774;2022-09-01T11:45:49;22.70;24.90
9865;DHT22;4971;52.398;9.774;2022-09-01T11:53:12;22.40;26.10
9865;DHT22;4971;52.398;9.774;2022-09-01T11:55:45;22.40;26.60
9865;DHT22;4971;52.398;9.774;2022-09-01T11:58:32;22.50;27.10
9865;DHT22;4971;52.398;9.774;2022-09-01T12:03:45;22.70;26.10
9865;DHT22;4971;52.398;9.774;2022-09-01T12:06:27;22.90;26.10
9865;DHT22;4971;52.398;9.774;2022-09-01T12:11:28;23.00;26.80
9865;DHT22;4971;52.398;9.774;2022-09-01T12:14:02;23.10;26.10
9865;DHT22;4971;52.398;9.774;2022-09-01T12:16:30;23.20;26.00
9865;DHT22;4971;52.398;9.774;2022-09-01T12:18:57;23.10;25.20
9865;DHT22;4971;52.398;9.774;2022-09-01T12:21:35;23.00;25.30
9865;DHT22;4971;52.398;9.774;2022-09-01T12:24:23;22.90;25.40
9865;DHT22;4971;52.398;9.774;2022-09-01T12:26:53;22.70;27.00
9865;DHT22;4971;52.398;9.774;2022-09-01T12:29:20;22.80;26.40
9865;DHT22;4971;52.398;9.774;2022-09-01T12:31:48;22.80;25.50
9865;DHT22;4971;52.398;9.774;2022-09-01T12:34:40;22.60;26.70
9865;DHT22;4971;52.398;9.774;2022-09-01T12:39:43;22.80;27.10
9865;DHT22;4971;52.398;9.774;2022-09-01T12:45:13;22.70;24.60
9865;DHT22;4971;52.398;9.774;2022-09-01T12:52:51;22.60;26.60
9865;DHT22;4971;52.398;9.774;2022-09-01T12:55:33;22.70;25.20
9865;DHT22;4971;52.398;9.774;2022-09-01T12:58:06;22.50;25.20
9865;DHT22;4971;52.398;9.774;2022-09-01T13:00:35;22.60;25.80
9865;DHT22;4971;52.398;9.774;2022-09-01T13:08:13;23.00;27.60
9865;DHT22;4971;52.398;9.774;2022-09-01T13:10:43;22.80;27.20
9865;DHT22;4971;52.398;9.774;2022-09-01T13:13:11;22.60;28.30
9865;DHT22;4971;52.398;9.774;2022-09-01T13:15:39;22.60;28.30
9865;DHT22;4971;52.398;9.774;2022-09-01T13:22:57;22.90;27.70
9865;DHT22;4971;52.398;9.774;2022-09-01T13:25:24;22.60;27.00
9865;DHT22;4971;52.398;9.774;2022-09-01T13:27:50;23.20;28.40
9865;DHT22;4971;52.398;9.774;2022-09-01T13:30:20;22.50;27.00
9865;DHT22;4971;52.398;9.774;2022-09-01T13:32:47;22.00;27.40
9865;DHT22;4971;52.398;9.774;2022-09-01T13:35:16;22.30;29.00
9865;DHT22;4971;52.398;9.774;2022-09-01T13:37:42;22.30;28.30
9865;DHT22;4971;52.398;9.774;2022-09-01T13:40:08;22.30;28.50
9865;DHT22;4971;52.398;9.774;2022-09-01T13:45:06;22.50;28.80
9865;DHT22;4971;52.398;9.774;2022-09-01T13:49:59;22.70;26.80
9865;DHT22;4971;52.398;9.774;2022-09-01T13:52:25;22.40;27.50
9865;DHT22;4971;52.398;9.774;2022-09-01T13:57:16;22.50;28.90
9865;DHT22;4971;52.398;9.774;2022-09-01T14:11:54;22.20;28.20
9865;DHT22;4971;52.398;9.774;2022-09-01T14:21:40;22.30;28.40
9865;DHT22;4971;52.398;9.774;2022-09-01T14:33:54;22.10;27.40
9865;DHT22;4971;52.398;9.774;2022-09-01T14:36:24;22.20;26.10
9865;DHT22;4971;52.398;9.774;2022-09-01T14:38:52;22.30;25.80
9865;DHT22;4971;52.398;9.774;2022-09-01T14:41:20;22.20;25.70
9865;DHT22;4971;52.398;9.774;2022-09-01T14:43:47;22.10;26.80
9865;DHT22;4971;52.398;9.774;2022-09-01T14:46:14;22.30;26.50
9865;DHT22;4971;52.398;9.774;2022-09-01T14:48:41;22.50;26.40
9865;DHT22;4971;52.398;9.774;2022-09-01T14:51:08;22.30;26.00
9865;DHT22;4971;52.398;9.774;2022-09-01T14:53:34;22.20;25.70
9865;DHT22;4971;52.398;9.774;2022-09-01T14:56:01;22.30;26.50
9865;DHT22;4971;52.398;9.774;2022-09-01T14:58:28;22.40;25.80
9865;DHT22;4971;52.398;9.774;2022-09-01T15:00:55;22.20;26.00
9865;DHT22;4971;52.398;9.774;2022-09-01T15:03:22;22.10;25.80
9865;DHT22;4971;52.398;9.774;2022-09-01T15:18:00;22.20;25.90
9865;DHT22;4971;52.398;9.774;2022-09-01T15:20:26;22.50;26.10
9865;DHT22;4971;52.398;9.774;2022-09-01T15:23:19;22.70;25.60
9865;DHT22;4971;52.398;9.774;2022-09-01T15:25:46;22.60;25.30
9865;DHT22;4971;52.398;9.774;2022-09-01T15:28:12;22.70;24.30
9865;DHT22;4971;52.398;9.774;2022-09-01T15:30:39;22.60;25.00
9865;DHT22;4971;52.398;9.774;2022-09-01T15:33:06;22.60;24.90
9865;DHT22;4971;52.398;9.774;2022-09-01T15:37:59;22.80;25.10
9865;DHT22;4971;52.398;9.774;2022-09-01T15:40:25;22.30;24.40
9865;DHT22;4971;52.398;9.774;2022-09-01T15:42:52;22.30;24.80
9865;DHT22;4971;52.398;9.774;2022-09-01T15:45:20;22.40;24.80
9865;DHT22;4971;52.398;9.774;2022-09-01T15:50:15;22.20;25.30
9865;DHT22;4971;52.398;9.774;2022-09-01T15:55:25;22.10;24.80
9865;DHT22;4971;52.398;9.774;2022-09-01T15:57:51;22.10;25.00
9865;DHT22;4971;52.398;9.774;2022-09-01T16:00:24;22.00;25.30
9865;DHT22;4971;52.398;9.774;2022-09-01T16:02:50;21.90;25.60
9865;DHT22;4971;52.398;9.774;2022-09-01T16:07:42;22.00;25.70
9865;DHT22;4971;52.398;9.774;2022-09-01T16:10:09;21.90;26.10
9865;DHT22;4971;52.398;9.774;2022-09-01T16:12:41;21.90;25.70
9865;DHT22;4971;52.398;9.774;2022-09-01T16:15:12;21.90;25.50
9865;DHT22;4971;52.398;9.774;2022-09-01T16:20:14;21.90;24.60
9865;DHT22;4971;52.398;9.774;2022-09-01T16:22:55;21.90;24.20
9865;DHT22;4971;52.398;9.774;2022-09-01T16:25:32;18.70;21.70
9865;DHT22;4971;52.398;9.774;2022-09-01T16:28:17;22.00;23.60
9865;DHT22;4971;52.398;9.774;2022-09-01T16:30:48;21.90;23.80
9865;DHT22;4971;52.398;9.774;2022-09-01T16:40:55;21.90;23.70
9865;DHT22;4971;52.398;9.774;2022-09-01T16:46:22;21.80;24.40
9865;DHT22;4971;52.398;9.774;2022-09-01T16:51:51;21.90;23.60
9865;DHT22;4971;52.398;9.774;2022-09-01T17:02:31;21.60;24.90
9865;DHT22;4971;52.398;9.774;2022-09-01T17:05:20;21.40;25.20
9865;DHT22;4971;52.398;9.774;2022-09-01T17:13:47;21.30;25.80
9865;DHT22;4971;52.398;9.774;2022-09-01T17:16:33;21.40;25.90
9865;DHT22;4971;52.398;9.774;2022-09-01T17:19:08;21.10;26.20
9865;DHT22;4971;52.398;9.774;2022-09-01T17:21:39;21.40;26.70
9865;DHT22;4971;52.398;9.774;2022-09-01T17:24:36;21.40;26.70
9865;DHT22;4971;52.398;9.774;2022-09-01T17:30:03;21.10;27.90
9865;DHT22;4971;52.398;9.774;2022-09-01T17:46:35;20.80;30.50
9865;DHT22;4971;52.398;9.774;2022-09-01T17:49:24;20.80;30.70
9865;DHT22;4971;52.398;9.774;2022-09-01T18:00:06;20.50;32.10
9865;DHT22;4971;52.398;9.774;2022-09-01T18:02:48;20.60;32.70
9865;DHT22;4971;52.398;9.774;2022-09-01T18:05:21;20.30;32.90
9865;DHT22;4971;52.398;9.774;2022-09-01T18:08:10;20.40;33.60
9865;DHT22;4971;52.398;9.774;2022-09-01T18:11:01;20.30;33.60
9865;DHT22;4971;52.398;9.774;2022-09-01T18:13:47;20.20;34.20
9865;DHT22;4971;52.398;9.774;2022-09-01T18:16:16;20.20;34.40
9865;DHT22;4971;52.398;9.774;2022-09-01T18:18:49;20.10;36.30
9865;DHT22;4971;52.398;9.774;2022-09-01T18:23:49;19.90;37.50
9865;DHT22;4971;52.398;9.774;2022-09-01T18:31:31;19.50;38.10
9865;DHT22;4971;52.398;9.774;2022-09-01T18:39:44;19.60;39.10
9865;DHT22;4971;52.398;9.774;2022-09-01T18:47:43;19.40;41.30
9865;DHT22;4971;52.398;9.774;2022-09-01T19:02:19;19.20;43.00
9865;DHT22;4971;52.398;9.774;2022-09-01T19:04:41;19.70;45.40
9865;DHT22;4971;52.398;9.774;2022-09-01T19:07:19;19.50;47.20
9865;DHT22;4971;52.398;9.774;2022-09-01T19:15:14;18.80;46.00
9865;DHT22;4971;52.398;9.774;2022-09-01T19:20:45;18.60;47.30
9865;DHT22;4971;52.398;9.774;2022-09-01T19:26:04;18.60;48.40
9865;DHT22;4971;52.398;9.774;2022-09-01T19:28:39;18.40;49.90
9865;DHT22;4971;52.398;9.774;2022-09-01T19:31:16;18.50;48.50
9865;DHT22;4971;52.398;9.774;2022-09-01T19:33:48;18.50;48.10
9865;DHT22;4971;52.398;9.774;2022-09-01T19:36:55;18.60;47.80
9865;DHT22;4971;52.398;9.774;2022-09-01T19:39:16;18.50;48.70
9865;DHT22;4971;52.398;9.774;2022-09-01T19:47:17;18.60;48.90
9865;DHT22;4971;52.398;9.774;2022-09-01T19:55:18;18.30;51.10
9865;DHT22;4971;52.398;9.774;2022-09-01T19:57:55;18.30;53.30
9865;DHT22;4971;52.398;9.774;2022-09-01T20:00:28;18.50;55.00
9865;DHT22;4971;52.398;9.774;2022-09-01T20:03:09;18.20;53.30
9865;DHT22;4971;52.398;9.774;2022-09-01T20:11:01;18.20;53.50
9865;DHT22;4971;52.398;9.774;2022-09-01T20:16:10;18.00;54.40
9865;DHT22;4971;52.398;9.774;2022-09-01T20:18:51;18.10;54.60
9865;DHT22;4971;52.398;9.774;2022-09-01T20:24:02;18.00;57.50
9865;DHT22;4971;52.398;9.774;2022-09-01T20:29:28;17.80;58.00
9865;DHT22;4971;52.398;9.774;2022-09-01T20:31:58;17.80;58.50
9865;DHT22;4971;52.398;9.774;2022-09-01T20:39:46;17.50;58.70
9865;DHT22;4971;52.398;9.774;2022-09-01T20:45:06;17.70;59.80
9865;DHT22;4971;52.398;9.774;2022-09-01T20:50:02;17.60;60.50
9865;DHT22;4971;52.398;9.774;2022-09-01T20:55:24;17.40;63.70
9865;DHT22;4971;52.398;9.774;2022-09-01T21:00:21;17.30;64.70
9865;DHT22;4971;52.398;9.774;2022-09-01T21:03:10;17.40;66.60
9865;DHT22;4971;52.398;9.774;2022-09-01T21:09:41;17.20;70.00
9865;DHT22;4971;52.398;9.774;2022-09-01T21:12:07;17.20;69.70
9865;DHT22;4971;52.398;9.774;2022-09-01T21:14:52;17.10;70.90
9865;DHT22;4971;52.398;9.774;2022-09-01T21:20:20;17.30;72.40
9865;DHT22;4971;52.398;9.774;2022-09-01T21:22:51;17.10;74.90
9865;DHT22;4971;52.398;9.774;2022-09-01T21:27:57;16.80;78.30
9865;DHT22;4971;52.398;9.774;2022-09-01T21:30:23;16.90;80.20
9865;DHT22;4971;52.398;9.774;2022-09-01T21:32:50;16.80;80.70
9865;DHT22;4971;52.398;9.774;2022-09-01T21:35:22;16.30;82.80
9865;DHT22;4971;52.398;9.774;2022-09-01T21:40:15;16.90;80.00
9865;DHT22;4971;52.398;9.774;2022-09-01T21:45:11;16.90;84.20
9865;DHT22;4971;52.398;9.774;2022-09-01T21:47:38;16.70;84.80
9865;DHT22;4971;52.398;9.774;2022-09-01T21:50:05;16.60;87.20
9865;DHT22;4971;52.398;9.774;2022-09-01T21:52:31;16.70;87.50
9865;DHT22;4971;52.398;9.774;2022-09-01T21:59:49;16.50;89.20
9865;DHT22;4971;52.398;9.774;2022-09-01T22:02:16;16.40;89.80
9865;DHT22;4971;52.398;9.774;2022-09-01T22:04:45;16.40;92.50
9865;DHT22;4971;52.398;9.774;2022-09-01T22:07:11;16.40;92.10
9865;DHT22;4971;52.398;9.774;2022-09-01T22:12:12;16.30;93.90
9865;DHT22;4971;52.398;9.774;2022-09-01T22:14:38;16.30;93.10
9865;DHT22;4971;52.398;9.774;2022-09-01T22:19:34;15.80;94.00
9865;DHT22;4971;52.398;9.774;2022-09-01T22:22:00;16.30;95.90
9865;DHT22;4971;52.398;9.774;2022-09-01T22:24:26;16.30;95.10
9865;DHT22;4971;52.398;9.774;2022-09-01T22:34:10;16.40;96.80
9865;DHT22;4971;52.398;9.774;2022-09-01T22:36:41;16.40;96.90
9865;DHT22;4971;52.398;9.774;2022-09-01T22:39:08;16.30;98.20
9865;DHT22;4971;52.398;9.774;2022-09-01T22:41:35;16.20;99.20
9865;DHT22;4971;52.398;9.774;2022-09-01T22:44:02;16.30;99.70
9865;DHT22;4971;52.398;9.774;2022-09-01T22:48:56;16.10;99.90
9865;DHT22;4971;52.398;9.774;2022-09-01T22:51:22;16.20;99.90
9865;DHT22;4971;52.398;9.774;2022-09-01T22:53:48;15.90;99.90
9865;DHT22;4971;52.398;9.774;2022-09-01T22:56:22;16.10;99.90
9865;DHT22;4971;52.398;9.774;2022-09-01T22:58:50;16.10;99.90
9865;DHT22;4971;52.398;9.774;2022-09-01T23:01:18;16.10;99.90
9865;DHT22;4971;52.398;9.774;2022-09-01T23:03:45;16.20;99.90
9865;DHT22;4971;52.398;9.774;2022-09-01T23:06:15;16.00;99.90
9865;DHT22;4971;52.398;9.774;2022-09-01T23:08:42;16.00;99.90
9865;DHT22;4971;52.398;9.774;2022-09-01T23:13:34;16.00;99.90
9865;DHT22;4971;52.398;9.774;2022-09-01T23:16:02;16.00;99.90
9865;DHT22;4971;52.398;9.774;2022-09-01T23:18:31;16.00;99.90
9865;DHT22;4971;52.398;9.774;2022-09-01T23:20:57;15.90;99.90
9865;DHT22;4971;52.398;9.774;2022-09-01T23:23:24;16.30;99.90
9865;DHT22;4971;52.398;9.774;2022-09-01T23:25:49;16.00;99.90
9865;DHT22;4971;52.398;9.774;2022-09-01T23:28:16;15.90;99.90
9865;DHT22;4971;52.398;9.774;2022-09-01T23:30:44;15.90;99.90
9865;DHT22;4971;52.398;9.774;2022-09-01T23:33:17;15.70;99.90
9865;DHT22;4971;52.398;9.774;2022-09-01T23:35:48;15.70;99.90
9865;DHT22;4971;52.398;9.774;2022-09-01T23:38:16;15.70;99.90
9865;DHT22;4971;52.398;9.774;2022-09-01T23:40:48;15.70;99.90
9865;DHT22;4971;52.398;9.774;2022-09-01T23:43:16;15.70;99.90
9865;DHT22;4971;52.398;9.774;2022-09-01T23:45:51;15.40;99.90
9865;DHT22;4971;52.398;9.774;2022-09-01T23:53:12;15.50;99.90
9865;DHT22;4971;52.398;9.774;2022-09-01T23:55:46;15.50;99.90
9865;DHT22;4971;52.398;9.774;2022-09-01T23:58:16;15.50;99.90
